createdAt,value
2023-05-02T00:00:19.682Z,31.69
2023-05-02T00:01:19.737Z,31.70
2023-05-02T00:02:19.872Z,31.68
2023-05-02T00:03:19.962Z,31.68
2023-05-02T00:04:19.863Z,31.69
2023-05-02T00:05:19.908Z,31.70
2023-05-02T00:06:19.994Z,31.70
2023-05-02T00:07:20.015Z,31.68
2023-05-02T00:08:20.076Z,31.69
2023-05-02T00:09:20.137Z,31.67
2023-05-02T00:10:20.194Z,31.70
2023-05-02T00:11:20.276Z,31.73
2023-05-02T00:12:20.313Z,31.72
2023-05-02T00:13:20.390Z,31.67
2023-05-02T00:14:20.457Z,31.79
2023-05-02T00:15:20.488Z,31.72
2023-05-02T00:16:20.567Z,31.70
2023-05-02T00:17:20.655Z,31.72
2023-05-02T00:18:20.704Z,31.75
2023-05-02T00:19:20.732Z,31.79
2023-05-02T00:20:20.792Z,31.76
2023-05-02T00:21:20.845Z,31.76
2023-05-02T00:22:20.902Z,31.70
2023-05-02T00:23:20.969Z,31.79
2023-05-02T00:24:21.010Z,31.79
2023-05-02T00:25:21.083Z,31.74
2023-05-02T00:26:21.139Z,31.79
2023-05-02T00:27:21.207Z,31.77
2023-05-02T00:28:21.256Z,31.76
2023-05-02T00:29:21.357Z,31.76
2023-05-02T00:30:21.385Z,31.77
2023-05-02T00:31:21.471Z,31.74
2023-05-02T00:32:21.520Z,31.76
2023-05-02T00:33:21.577Z,31.74
2023-05-02T00:34:21.645Z,31.80
2023-05-02T00:35:21.699Z,31.77
2023-05-02T00:36:21.764Z,31.74
2023-05-02T00:37:21.823Z,31.77
2023-05-02T00:38:21.920Z,31.74
2023-05-02T00:39:21.952Z,31.76
2023-05-02T00:40:22.015Z,31.74
2023-05-02T00:41:22.098Z,31.78
2023-05-02T00:42:22.155Z,31.76
2023-05-02T00:43:22.214Z,31.76
2023-05-02T00:44:22.272Z,31.76
2023-05-02T00:45:22.357Z,31.80
2023-05-02T00:46:22.415Z,31.78
2023-05-02T00:47:22.485Z,31.81
2023-05-02T00:48:22.526Z,31.78
2023-05-02T00:49:22.589Z,31.83
2023-05-02T00:50:22.652Z,31.78
2023-05-02T00:51:22.711Z,31.77
2023-05-02T00:52:22.780Z,31.77
2023-05-02T00:53:22.835Z,31.78
2023-05-02T00:54:22.899Z,31.78
2023-05-02T00:55:22.964Z,31.83
2023-05-02T00:56:23.038Z,31.80
2023-05-02T00:57:23.156Z,31.76
2023-05-02T00:58:23.152Z,31.81
2023-05-02T00:59:23.219Z,31.72
2023-05-02T01:00:23.280Z,31.78
2023-05-02T01:01:23.464Z,31.80
2023-05-02T01:02:23.583Z,31.81
2023-05-02T01:03:23.602Z,31.74
2023-05-02T01:04:23.550Z,31.81
2023-05-02T01:05:23.599Z,31.78
2023-05-02T01:06:23.719Z,31.81
2023-05-02T01:07:24.086Z,31.81
2023-05-02T01:08:24.118Z,31.77
2023-05-02T01:09:24.125Z,31.80
2023-05-02T01:10:24.128Z,31.83
2023-05-02T01:11:24.118Z,31.81
2023-05-02T01:12:24.163Z,31.87
2023-05-02T01:13:25.006Z,31.86
2023-05-02T01:14:24.169Z,31.83
2023-05-02T01:15:24.232Z,31.84
2023-05-02T01:16:24.358Z,31.80
2023-05-02T01:17:24.488Z,31.83
2023-05-02T01:18:24.423Z,31.81
2023-05-02T01:19:24.495Z,31.80
2023-05-02T01:20:24.559Z,31.80
2023-05-02T01:21:25.009Z,31.83
2023-05-02T01:22:25.001Z,31.87
2023-05-02T01:23:25.004Z,31.81
2023-05-02T01:24:25.002Z,31.84
2023-05-02T01:25:25.018Z,31.84
2023-05-02T01:26:25.014Z,31.84
2023-05-02T01:27:25.008Z,31.80
2023-05-02T01:28:25.060Z,31.85
2023-05-02T01:29:25.122Z,31.84
2023-05-02T01:30:25.190Z,31.82
2023-05-02T01:31:25.286Z,31.87
2023-05-02T01:32:25.363Z,31.84
2023-05-02T01:33:25.409Z,31.87
2023-05-02T01:34:25.438Z,31.87
2023-05-02T01:35:25.507Z,31.87
2023-05-02T01:36:25.592Z,31.80
2023-05-02T01:37:25.630Z,31.83
2023-05-02T01:38:25.695Z,31.87
2023-05-02T01:39:25.768Z,31.83
2023-05-02T01:40:25.826Z,31.87
2023-05-02T01:41:25.891Z,31.84
2023-05-02T01:42:25.948Z,31.83
2023-05-02T01:43:26.010Z,31.83
2023-05-02T01:44:26.075Z,31.84
2023-05-02T01:45:26.162Z,31.84
2023-05-02T01:46:26.222Z,31.85
2023-05-02T01:47:26.290Z,31.88
2023-05-02T01:48:26.325Z,31.81
2023-05-02T01:49:26.422Z,31.89
2023-05-02T01:50:26.460Z,31.81
2023-05-02T01:51:26.534Z,31.84
2023-05-02T01:52:26.581Z,31.83
2023-05-02T01:53:26.653Z,31.87
2023-05-02T01:54:26.714Z,31.88
2023-05-02T01:55:26.780Z,31.83
2023-05-02T01:56:26.831Z,31.84
2023-05-02T01:57:26.884Z,31.84
2023-05-02T01:58:26.943Z,31.85
2023-05-02T01:59:26.997Z,31.85
2023-05-02T02:00:27.067Z,31.85
2023-05-02T02:01:27.142Z,31.85
2023-05-02T02:02:27.169Z,31.87
2023-05-02T02:03:27.253Z,31.85
2023-05-02T02:04:27.363Z,31.85
2023-05-02T02:05:27.373Z,31.85
2023-05-02T02:06:27.458Z,31.89
2023-05-02T02:07:27.448Z,31.88
2023-05-02T02:08:27.500Z,31.87
2023-05-02T02:09:27.555Z,31.89
2023-05-02T02:10:27.605Z,31.94
2023-05-02T02:11:27.652Z,31.88
2023-05-02T02:12:27.684Z,31.89
2023-05-02T02:13:27.728Z,31.89
2023-05-02T02:14:27.786Z,31.91
2023-05-02T02:15:27.827Z,31.91
2023-05-02T02:16:27.894Z,31.85
2023-05-02T02:17:27.971Z,31.88
2023-05-02T02:18:27.991Z,31.91
2023-05-02T02:19:28.066Z,31.89
2023-05-02T02:20:28.118Z,31.89
2023-05-02T02:21:28.196Z,31.89
2023-05-02T02:22:28.223Z,31.91
2023-05-02T02:23:28.281Z,31.89
2023-05-02T02:24:28.355Z,31.89
2023-05-02T02:25:28.412Z,31.91
2023-05-02T02:26:28.457Z,31.92
2023-05-02T02:27:28.505Z,31.89
2023-05-02T02:28:28.568Z,31.87
2023-05-02T02:29:28.610Z,31.87
2023-05-02T02:30:28.668Z,31.88
2023-05-02T02:31:28.743Z,31.91
2023-05-02T02:32:28.796Z,31.88
2023-05-02T02:33:28.837Z,31.89
2023-05-02T02:34:28.878Z,31.92
2023-05-02T02:35:28.903Z,31.91
2023-05-02T02:36:28.956Z,31.92
2023-05-02T02:37:29.008Z,31.95
2023-05-02T02:38:29.022Z,31.94
2023-05-02T02:39:29.129Z,31.89
2023-05-02T02:40:29.199Z,31.86
2023-05-02T02:41:29.159Z,31.91
2023-05-02T02:42:29.205Z,31.89
2023-05-02T02:43:29.255Z,31.93
2023-05-02T02:44:29.310Z,31.89
2023-05-02T02:45:29.365Z,31.89
2023-05-02T02:46:29.454Z,31.88
2023-05-02T02:47:29.519Z,31.92
2023-05-02T02:48:29.541Z,31.91
2023-05-02T02:49:29.590Z,31.89
2023-05-02T02:50:29.649Z,31.92
2023-05-02T02:51:29.700Z,31.88
2023-05-02T02:52:30.121Z,31.92
2023-05-02T02:53:30.142Z,31.89
2023-05-02T02:54:30.115Z,31.88
2023-05-02T02:55:30.128Z,31.92
2023-05-02T02:56:30.129Z,31.97
2023-05-02T02:57:30.124Z,31.95
2023-05-02T02:58:30.116Z,31.95
2023-05-02T02:59:30.127Z,31.93
2023-05-02T03:00:30.137Z,31.92
2023-05-02T03:01:30.134Z,31.94
2023-05-02T03:02:30.177Z,31.90
2023-05-02T03:03:30.206Z,31.93
2023-05-02T03:04:30.207Z,31.93
2023-05-02T03:05:30.229Z,31.87
2023-05-02T03:06:30.304Z,31.96
2023-05-02T03:07:30.294Z,31.98
2023-05-02T03:08:30.331Z,31.95
2023-05-02T03:09:30.376Z,31.91
2023-05-02T03:10:30.372Z,31.91
2023-05-02T03:11:30.399Z,31.87
2023-05-02T03:12:30.446Z,31.92
2023-05-02T03:13:30.469Z,31.95
2023-05-02T03:14:30.504Z,31.92
2023-05-02T03:15:30.561Z,31.95
2023-05-02T03:16:30.693Z,31.92
2023-05-02T03:17:30.646Z,31.95
2023-05-02T03:18:30.654Z,31.95
2023-05-02T03:19:31.045Z,31.87
2023-05-02T03:20:31.036Z,31.97
2023-05-02T03:21:31.046Z,31.89
2023-05-02T03:22:31.042Z,31.95
2023-05-02T03:23:31.042Z,31.91
2023-05-02T03:24:31.046Z,31.93
2023-05-02T03:25:31.068Z,31.92
2023-05-02T03:26:31.047Z,31.93
2023-05-02T03:27:31.048Z,31.90
2023-05-02T03:28:31.044Z,31.95
2023-05-02T03:29:31.062Z,31.90
2023-05-02T03:30:31.107Z,31.94
2023-05-02T03:31:31.062Z,31.98
2023-05-02T03:32:31.148Z,31.96
2023-05-02T03:33:31.048Z,31.92
2023-05-02T03:34:31.048Z,31.95
2023-05-02T03:35:31.047Z,31.95
2023-05-02T03:36:31.052Z,31.96
2023-05-02T03:37:31.050Z,31.95
2023-05-02T03:38:31.055Z,31.96
2023-05-02T03:39:31.066Z,31.96
2023-05-02T03:40:31.082Z,31.96
2023-05-02T03:41:31.139Z,31.99
2023-05-02T03:42:31.108Z,31.94
2023-05-02T03:43:31.127Z,31.89
2023-05-02T03:44:31.140Z,31.93
2023-05-02T03:45:31.159Z,31.96
2023-05-02T03:46:31.581Z,31.92
2023-05-02T03:47:31.236Z,31.95
2023-05-02T03:48:31.177Z,31.92
2023-05-02T03:49:31.187Z,31.96
2023-05-02T03:50:31.199Z,31.92
2023-05-02T03:51:31.199Z,31.94
2023-05-02T03:52:31.214Z,32.00
2023-05-02T03:53:31.262Z,31.92
2023-05-02T03:54:31.290Z,31.97
2023-05-02T03:55:31.308Z,31.99
2023-05-02T03:56:31.314Z,31.94
2023-05-02T03:57:31.355Z,31.96
2023-05-02T03:58:31.363Z,32.02
2023-05-02T03:59:31.384Z,31.99
2023-05-02T04:00:31.381Z,31.94
2023-05-02T04:01:31.382Z,31.92
2023-05-02T04:02:31.467Z,31.99
2023-05-02T04:03:31.445Z,31.98
2023-05-02T04:04:31.466Z,31.96
2023-05-02T04:05:31.419Z,31.93
2023-05-02T04:06:31.445Z,31.94
2023-05-02T04:07:31.425Z,31.96
2023-05-02T04:08:31.433Z,31.97
2023-05-02T04:09:31.451Z,32.02
2023-05-02T04:10:31.464Z,31.97
2023-05-02T04:11:31.473Z,31.98
2023-05-02T04:12:31.488Z,31.97
2023-05-02T04:13:31.499Z,32.00
2023-05-02T04:14:31.475Z,31.96
2023-05-02T04:15:31.496Z,31.99
2023-05-02T04:16:31.553Z,31.99
2023-05-02T04:17:31.556Z,31.99
2023-05-02T04:18:31.521Z,32.03
2023-05-02T04:19:31.529Z,32.02
2023-05-02T04:20:31.542Z,31.99
2023-05-02T04:21:31.543Z,32.02
2023-05-02T04:22:31.575Z,32.02
2023-05-02T04:23:31.576Z,31.97
2023-05-02T04:24:31.596Z,31.97
2023-05-02T04:25:31.608Z,31.99
2023-05-02T04:26:31.603Z,31.99
2023-05-02T04:27:31.608Z,32.02
2023-05-02T04:28:32.359Z,31.96
2023-05-02T04:29:31.618Z,32.00
2023-05-02T04:30:31.643Z,32.02
2023-05-02T04:31:31.801Z,31.99
2023-05-02T04:32:31.728Z,31.96
2023-05-02T04:33:31.664Z,32.00
2023-05-02T04:34:31.707Z,31.98
2023-05-02T04:35:31.715Z,32.00
2023-05-02T04:36:31.698Z,32.00
2023-05-02T04:37:31.704Z,31.99
2023-05-02T04:38:31.720Z,32.02
2023-05-02T04:39:31.731Z,32.03
2023-05-02T04:40:31.750Z,31.97
2023-05-02T04:41:31.775Z,32.03
2023-05-02T04:42:31.792Z,32.03
2023-05-02T04:43:31.800Z,32.02
2023-05-02T04:44:31.823Z,32.06
2023-05-02T04:45:31.878Z,32.04
2023-05-02T04:46:31.950Z,32.03
2023-05-02T04:47:31.948Z,31.99
2023-05-02T04:48:31.895Z,32.00
2023-05-02T04:49:31.888Z,32.02
2023-05-02T04:50:31.891Z,32.03
2023-05-02T04:51:31.888Z,32.03
2023-05-02T04:52:31.879Z,32.02
2023-05-02T04:53:31.883Z,32.05
2023-05-02T04:54:31.883Z,32.09
2023-05-02T04:55:31.883Z,32.06
2023-05-02T04:56:31.892Z,32.08
2023-05-02T04:57:31.887Z,32.04
2023-05-02T04:58:31.883Z,32.03
2023-05-02T04:59:31.878Z,32.04
2023-05-02T05:00:31.874Z,31.99
2023-05-02T05:01:31.943Z,32.03
2023-05-02T05:02:31.938Z,32.03
2023-05-02T05:03:31.958Z,32.09
2023-05-02T05:04:31.874Z,32.04
2023-05-02T05:05:31.892Z,32.06
2023-05-02T05:06:32.004Z,32.03
2023-05-02T05:07:32.378Z,31.96
2023-05-02T05:08:31.881Z,32.03
2023-05-02T05:09:31.898Z,32.02
2023-05-02T05:10:31.912Z,32.06
2023-05-02T05:11:31.922Z,32.03
2023-05-02T05:12:32.119Z,32.02
2023-05-02T05:13:32.123Z,32.03
2023-05-02T05:14:32.124Z,32.02
2023-05-02T05:15:32.118Z,31.96
2023-05-02T05:16:32.179Z,32.04
2023-05-02T05:17:32.194Z,32.02
2023-05-02T05:18:32.134Z,32.04
2023-05-02T05:19:32.122Z,32.02
2023-05-02T05:20:32.393Z,32.04
2023-05-02T05:21:32.134Z,32.10
2023-05-02T05:22:32.132Z,32.05
2023-05-02T05:23:32.117Z,32.09
2023-05-02T05:24:32.130Z,32.08
2023-05-02T05:25:32.151Z,32.09
2023-05-02T05:26:32.158Z,32.18
2023-05-02T05:27:32.123Z,32.19
2023-05-02T05:28:32.140Z,32.26
2023-05-02T05:29:32.121Z,32.25
2023-05-02T05:30:32.136Z,32.21
2023-05-02T05:31:32.193Z,32.23
2023-05-02T05:32:32.523Z,32.24
2023-05-02T05:33:32.329Z,32.26
2023-05-02T05:34:32.261Z,32.30
2023-05-02T05:35:32.263Z,32.22
2023-05-02T05:36:32.290Z,32.24
2023-05-02T05:37:32.386Z,32.31
2023-05-02T05:38:32.337Z,32.35
2023-05-02T05:39:32.394Z,32.40
2023-05-02T05:40:32.413Z,32.42
2023-05-02T05:41:32.470Z,32.48
2023-05-02T05:42:32.894Z,32.44
2023-05-02T05:43:32.495Z,32.48
2023-05-02T05:44:32.523Z,32.46
2023-05-02T05:45:32.577Z,32.44
2023-05-02T05:46:32.589Z,32.53
2023-05-02T05:47:33.150Z,32.40
2023-05-02T05:48:32.593Z,32.46
2023-05-02T05:49:32.943Z,32.47
2023-05-02T05:50:32.656Z,32.54
2023-05-02T05:51:32.681Z,32.69
2023-05-02T05:52:32.713Z,32.69
2023-05-02T05:53:33.152Z,32.65
2023-05-02T05:54:32.904Z,32.68
2023-05-02T05:55:33.180Z,32.78
2023-05-02T05:56:32.905Z,32.85
2023-05-02T05:57:33.413Z,33.23
2023-05-02T05:58:33.150Z,33.48
2023-05-02T05:59:33.094Z,33.59
2023-05-02T06:00:33.927Z,33.85
2023-05-02T06:01:33.249Z,33.92
2023-05-02T06:02:33.566Z,34.21
2023-05-02T06:03:33.514Z,34.34
2023-05-02T06:04:33.465Z,34.54
2023-05-02T06:05:33.450Z,34.67
2023-05-02T06:06:34.531Z,34.86
2023-05-02T06:07:33.509Z,34.90
2023-05-02T06:08:33.551Z,35.07
2023-05-02T06:09:33.595Z,35.21
2023-05-02T06:10:33.610Z,35.30
2023-05-02T06:11:33.670Z,35.37
2023-05-02T06:12:33.932Z,35.60
2023-05-02T06:13:33.689Z,35.61
2023-05-02T06:14:33.947Z,35.68
2023-05-02T06:15:33.725Z,35.93
2023-05-02T06:16:33.960Z,35.93
2023-05-02T06:17:33.976Z,36.16
2023-05-02T06:18:33.773Z,36.00
2023-05-02T06:19:33.801Z,35.95
2023-05-02T06:20:33.910Z,36.04
2023-05-02T06:21:33.872Z,36.04
2023-05-02T06:22:34.152Z,36.11
2023-05-02T06:23:34.410Z,36.25
2023-05-02T06:24:34.099Z,36.27
2023-05-02T06:25:34.111Z,36.33
2023-05-02T06:26:34.411Z,36.36
2023-05-02T06:27:33.954Z,36.54
2023-05-02T06:28:33.978Z,36.66
2023-05-02T06:29:33.976Z,36.62
2023-05-02T06:30:34.416Z,36.58
2023-05-02T06:31:34.051Z,36.70
2023-05-02T06:32:34.135Z,36.71
2023-05-02T06:33:34.098Z,36.84
2023-05-02T06:34:34.043Z,36.87
2023-05-02T06:35:34.045Z,37.08
2023-05-02T06:36:34.058Z,37.08
2023-05-02T06:37:34.077Z,36.97
2023-05-02T06:38:34.068Z,36.99
2023-05-02T06:39:34.046Z,37.06
2023-05-02T06:40:34.047Z,37.22
2023-05-02T06:41:34.060Z,37.30
2023-05-02T06:42:34.407Z,37.28
2023-05-02T06:43:34.061Z,37.46
2023-05-02T06:44:34.418Z,37.44
2023-05-02T06:45:34.028Z,37.35
2023-05-02T06:46:34.077Z,37.50
2023-05-02T06:47:34.441Z,37.50
2023-05-02T06:48:34.038Z,37.88
2023-05-02T06:49:34.417Z,37.81
2023-05-02T06:50:34.086Z,37.82
2023-05-02T06:51:34.127Z,37.97
2023-05-02T06:52:34.134Z,38.12
2023-05-02T06:53:34.455Z,38.02
2023-05-02T06:54:34.254Z,38.35
2023-05-02T06:55:34.322Z,38.38
2023-05-02T06:56:34.367Z,38.41
2023-05-02T06:57:34.413Z,38.42
2023-05-02T06:58:34.916Z,38.48
2023-05-02T06:59:34.555Z,38.48
2023-05-02T07:00:34.685Z,38.64
2023-05-02T07:01:34.796Z,38.70
2023-05-02T07:02:34.778Z,38.62
2023-05-02T07:03:34.810Z,38.76
2023-05-02T07:04:34.992Z,38.83
2023-05-02T07:05:34.910Z,39.01
2023-05-02T07:06:35.047Z,39.05
2023-05-02T07:07:35.035Z,38.93
2023-05-02T07:08:35.094Z,39.04
2023-05-02T07:09:35.568Z,38.95
2023-05-02T07:10:35.206Z,39.19
2023-05-02T07:11:35.264Z,39.13
2023-05-02T07:12:35.422Z,39.04
2023-05-02T07:13:35.372Z,39.07
2023-05-02T07:14:35.921Z,39.23
2023-05-02T07:15:35.501Z,39.24
2023-05-02T07:16:35.620Z,39.37
2023-05-02T07:17:36.238Z,39.35
2023-05-02T07:18:35.653Z,39.29
2023-05-02T07:19:35.700Z,39.44
2023-05-02T07:20:35.750Z,39.48
2023-05-02T07:21:35.806Z,39.60
2023-05-02T07:22:36.428Z,39.47
2023-05-02T07:23:36.202Z,39.55
2023-05-02T07:24:36.179Z,39.59
2023-05-02T07:25:36.476Z,39.58
2023-05-02T07:26:36.027Z,39.64
2023-05-02T07:27:36.430Z,39.68
2023-05-02T07:28:36.071Z,39.64
2023-05-02T07:29:36.510Z,39.62
2023-05-02T07:30:36.474Z,39.75
2023-05-02T07:31:36.171Z,39.92
2023-05-02T07:32:36.225Z,39.76
2023-05-02T07:33:36.233Z,39.77
2023-05-02T07:34:36.545Z,39.85
2023-05-02T07:35:36.345Z,39.91
2023-05-02T07:36:36.540Z,40.12
2023-05-02T07:37:36.358Z,39.65
2023-05-02T07:38:40.593Z,39.62
2023-05-02T07:39:36.386Z,39.13
2023-05-02T07:40:36.365Z,38.98
2023-05-02T07:41:36.503Z,38.80
2023-05-02T07:42:36.332Z,38.55
2023-05-02T07:43:36.322Z,38.40
2023-05-02T07:44:36.696Z,38.16
2023-05-02T07:45:36.438Z,37.98
2023-05-02T07:46:36.460Z,37.94
2023-05-02T07:47:36.995Z,37.83
2023-05-02T07:48:36.596Z,37.88
2023-05-02T07:49:37.650Z,37.79
2023-05-02T07:50:36.740Z,37.81
2023-05-02T07:51:36.814Z,37.68
2023-05-02T07:52:37.508Z,37.43
2023-05-02T07:53:37.211Z,37.47
2023-05-02T07:54:37.208Z,37.45
2023-05-02T07:55:37.177Z,37.28
2023-05-02T07:56:37.204Z,37.32
2023-05-02T07:57:37.526Z,37.23
2023-05-02T07:58:37.181Z,37.26
2023-05-02T07:59:37.444Z,37.23
2023-05-02T08:00:37.269Z,37.17
2023-05-02T08:01:37.317Z,37.07
2023-05-02T08:02:37.513Z,37.03
2023-05-02T08:03:37.676Z,36.98
2023-05-02T08:04:37.996Z,36.93
2023-05-02T08:05:37.512Z,36.90
2023-05-02T08:06:37.912Z,36.85
2023-05-02T08:07:38.242Z,36.77
2023-05-02T08:08:37.638Z,36.74
2023-05-02T08:09:37.682Z,36.73
2023-05-02T08:10:37.953Z,36.67
2023-05-02T08:11:37.781Z,36.70
2023-05-02T08:12:37.826Z,36.63
2023-05-02T08:13:38.235Z,36.63
2023-05-02T08:14:38.956Z,36.63
2023-05-02T08:15:38.559Z,36.67
2023-05-02T08:16:38.179Z,36.59
2023-05-02T08:17:38.159Z,36.54
2023-05-02T08:18:38.215Z,36.58
2023-05-02T08:19:38.459Z,36.51
2023-05-02T08:20:38.477Z,36.46
2023-05-02T08:21:38.338Z,36.30
2023-05-02T08:22:38.402Z,36.23
2023-05-02T08:23:38.957Z,36.28
2023-05-02T08:24:38.565Z,36.31
2023-05-02T08:25:38.593Z,36.22
2023-05-02T08:26:38.652Z,36.31
2023-05-02T08:27:38.953Z,36.34
2023-05-02T08:28:38.777Z,36.26
2023-05-02T08:29:38.864Z,36.20
2023-05-02T08:30:38.912Z,36.30
2023-05-02T08:31:39.026Z,36.27
2023-05-02T08:32:39.497Z,36.37
2023-05-02T08:33:40.111Z,36.31
2023-05-02T08:34:39.148Z,36.26
2023-05-02T08:35:39.215Z,36.26
2023-05-02T08:36:39.267Z,36.30
2023-05-02T08:37:39.465Z,36.26
2023-05-02T08:38:39.372Z,36.22
2023-05-02T08:39:39.438Z,36.13
2023-05-02T08:40:42.619Z,36.12
2023-05-02T08:41:39.483Z,36.06
2023-05-02T08:42:39.458Z,36.02
2023-05-02T08:43:39.448Z,36.00
2023-05-02T08:44:39.499Z,35.97
2023-05-02T08:45:39.457Z,35.90
2023-05-02T08:46:39.549Z,36.04
2023-05-02T08:47:39.447Z,35.89
2023-05-02T08:48:39.408Z,35.83
2023-05-02T08:49:39.467Z,35.78
2023-05-02T08:50:39.387Z,35.64
2023-05-02T08:51:41.313Z,35.73
2023-05-02T08:52:39.382Z,35.71
2023-05-02T08:53:39.378Z,35.78
2023-05-02T08:54:39.370Z,35.88
2023-05-02T08:55:39.463Z,35.92
2023-05-02T08:56:39.386Z,35.91
2023-05-02T08:57:39.337Z,35.95
2023-05-02T08:58:39.464Z,36.06
2023-05-02T08:59:39.397Z,35.98
2023-05-02T09:00:39.661Z,36.17
2023-05-02T09:01:39.394Z,36.30
2023-05-02T09:02:39.338Z,36.36
2023-05-02T09:03:39.467Z,36.46
2023-05-02T09:04:39.371Z,36.54
2023-05-02T09:05:39.463Z,36.66
2023-05-02T09:06:39.337Z,36.77
2023-05-02T09:07:39.286Z,36.89
2023-05-02T09:08:39.465Z,36.89
2023-05-02T09:09:39.270Z,37.01
2023-05-02T09:10:39.262Z,37.02
2023-05-02T09:11:39.473Z,37.19
2023-05-02T09:12:39.227Z,37.12
2023-05-02T09:13:39.250Z,37.26
2023-05-02T09:14:39.219Z,37.28
2023-05-02T09:15:39.470Z,37.44
2023-05-02T09:16:40.643Z,37.44
2023-05-02T09:17:39.235Z,37.50
2023-05-02T09:18:39.506Z,37.55
2023-05-02T09:19:39.200Z,37.65
2023-05-02T09:20:39.468Z,37.72
2023-05-02T09:21:39.212Z,37.71
2023-05-02T09:22:39.202Z,37.85
2023-05-02T09:23:39.530Z,37.88
2023-05-02T09:24:39.196Z,37.92
2023-05-02T09:25:39.477Z,38.02
2023-05-02T09:26:39.194Z,37.94
2023-05-02T09:27:39.186Z,38.06
2023-05-02T09:28:39.497Z,38.09
2023-05-02T09:29:39.333Z,38.19
2023-05-02T09:30:39.499Z,38.26
2023-05-02T09:32:38.288Z,38.36
2023-05-02T09:33:39.305Z,38.26
2023-05-02T09:34:39.289Z,38.11
2023-05-02T09:35:39.502Z,38.04
2023-05-02T09:36:39.497Z,37.86
2023-05-02T09:37:39.258Z,37.68
2023-05-02T09:38:39.261Z,37.53
2023-05-02T09:39:39.482Z,37.39
2023-05-02T09:40:39.260Z,37.33
2023-05-02T09:41:39.261Z,37.30
2023-05-02T09:42:39.505Z,37.23
2023-05-02T09:43:39.269Z,37.19
2023-05-02T09:44:39.310Z,37.26
2023-05-02T09:45:39.269Z,37.12
2023-05-02T09:46:39.379Z,37.08
2023-05-02T09:47:39.331Z,37.04
2023-05-02T09:48:39.268Z,37.08
2023-05-02T09:49:39.299Z,37.01
2023-05-02T09:50:39.271Z,37.01
2023-05-02T09:51:39.274Z,36.98
2023-05-02T09:52:39.268Z,36.90
2023-05-02T09:53:39.490Z,37.02
2023-05-02T09:54:39.270Z,37.01
2023-05-02T09:55:39.269Z,36.99
2023-05-02T09:56:39.291Z,36.97
2023-05-02T09:57:39.294Z,36.95
2023-05-02T09:58:39.282Z,36.91
2023-05-02T09:59:39.274Z,36.93
2023-05-02T10:00:39.491Z,36.92
2023-05-02T10:01:39.072Z,36.89
2023-05-02T10:02:39.076Z,37.02
2023-05-02T10:03:39.556Z,36.87
2023-05-02T10:04:39.065Z,36.90
2023-05-02T10:05:39.039Z,36.90
2023-05-02T10:06:39.034Z,36.99
2023-05-02T10:07:39.000Z,36.94
2023-05-02T10:08:39.484Z,36.92
2023-05-02T10:09:38.976Z,36.96
2023-05-02T10:10:38.974Z,36.91
2023-05-02T10:11:38.968Z,36.97
2023-05-02T10:12:38.961Z,36.90
2023-05-02T10:13:39.020Z,36.85
2023-05-02T10:14:38.996Z,36.85
2023-05-02T10:15:39.023Z,36.85
2023-05-02T10:16:39.014Z,36.82
2023-05-02T10:17:39.255Z,36.85
2023-05-02T10:18:39.490Z,36.75
2023-05-02T10:19:39.500Z,36.78
2023-05-02T10:20:39.504Z,36.83
2023-05-02T10:21:39.246Z,36.75
2023-05-02T10:22:39.279Z,36.70
2023-05-02T10:23:39.510Z,36.71
2023-05-02T10:24:39.373Z,36.67
2023-05-02T10:25:39.420Z,36.69
2023-05-02T10:26:39.479Z,36.63
2023-05-02T10:27:39.529Z,36.68
2023-05-02T10:28:39.992Z,36.61
2023-05-02T10:29:39.628Z,36.62
2023-05-02T10:30:40.003Z,36.62
2023-05-02T10:31:39.799Z,36.58
2023-05-02T10:32:39.807Z,36.57
2023-05-02T10:33:39.838Z,36.58
2023-05-02T10:34:39.887Z,36.22
2023-05-02T10:35:39.999Z,35.72
2023-05-02T10:36:40.006Z,36.22
2023-05-02T10:37:40.140Z,36.25
2023-05-02T10:38:40.109Z,36.33
2023-05-02T10:39:40.160Z,36.40
2023-05-02T10:40:40.252Z,36.20
2023-05-02T10:41:40.285Z,36.21
2023-05-02T10:42:40.343Z,36.29
2023-05-02T10:43:40.416Z,36.29
2023-05-02T10:44:40.524Z,36.25
2023-05-02T10:45:40.544Z,36.24
2023-05-02T10:46:41.086Z,36.30
2023-05-02T10:47:40.706Z,36.33
2023-05-02T10:48:41.296Z,36.31
2023-05-02T10:49:40.780Z,36.26
2023-05-02T10:50:41.301Z,36.22
2023-05-02T10:51:41.275Z,36.26
2023-05-02T10:52:41.380Z,36.22
2023-05-02T10:53:41.529Z,36.10
2023-05-02T10:54:41.300Z,36.11
2023-05-02T10:55:41.304Z,35.95
2023-05-02T10:56:41.307Z,36.08
2023-05-02T10:57:41.335Z,35.98
2023-05-02T10:58:41.310Z,35.92
2023-05-02T10:59:41.362Z,35.80
2023-05-02T11:00:41.528Z,35.87
2023-05-02T11:01:41.453Z,35.86
2023-05-02T11:02:41.616Z,35.94
2023-05-02T11:03:41.609Z,36.05
2023-05-02T11:04:41.647Z,35.90
2023-05-02T11:05:42.002Z,35.90
2023-05-02T11:06:41.728Z,35.84
2023-05-02T11:07:41.753Z,35.66
2023-05-02T11:08:41.810Z,35.65
2023-05-02T11:09:41.886Z,35.87
2023-05-02T11:10:42.013Z,35.87
2023-05-02T11:11:42.012Z,35.82
2023-05-02T11:12:42.024Z,35.75
2023-05-02T11:13:42.507Z,35.85
2023-05-02T11:14:42.521Z,35.64
2023-05-02T11:15:42.200Z,35.74
2023-05-02T11:16:43.349Z,35.55
2023-05-02T11:17:42.315Z,35.47
2023-05-02T11:18:42.513Z,35.59
2023-05-02T11:19:42.363Z,35.62
2023-05-02T11:20:42.524Z,35.57
2023-05-02T11:21:42.463Z,35.79
2023-05-02T11:22:42.481Z,35.75
2023-05-02T11:23:43.351Z,35.63
2023-05-02T11:24:42.566Z,35.17
2023-05-02T11:25:43.373Z,35.58
2023-05-02T11:26:42.623Z,35.72
2023-05-02T11:27:42.670Z,35.75
2023-05-02T11:28:42.695Z,35.75
2023-05-02T11:29:42.728Z,35.83
2023-05-02T11:30:43.344Z,35.78
2023-05-02T11:31:42.809Z,35.76
2023-05-02T11:32:42.865Z,35.77
2023-05-02T11:33:43.331Z,35.76
2023-05-02T11:34:43.321Z,35.77
2023-05-02T11:35:43.516Z,35.77
2023-05-02T11:36:43.333Z,35.79
2023-05-02T11:37:43.342Z,35.67
2023-05-02T11:38:43.526Z,35.69
2023-05-02T11:39:43.343Z,35.71
2023-05-02T11:40:43.331Z,35.73
2023-05-02T11:41:43.349Z,35.72
2023-05-02T11:42:43.328Z,35.72
2023-05-02T11:43:43.520Z,35.72
2023-05-02T11:44:43.344Z,35.66
2023-05-02T11:45:43.378Z,35.70
2023-05-02T11:46:43.470Z,35.70
2023-05-02T11:47:43.341Z,35.65
2023-05-02T11:48:43.519Z,35.65
2023-05-02T11:49:43.524Z,35.69
2023-05-02T11:50:48.736Z,35.63
2023-05-02T11:51:43.334Z,35.69
2023-05-02T11:52:43.523Z,35.68
2023-05-02T11:53:43.332Z,35.70
2023-05-02T11:54:43.353Z,35.67
2023-05-02T11:55:43.353Z,35.63
2023-05-02T11:56:43.347Z,35.65
2023-05-02T11:57:43.366Z,35.58
2023-05-02T11:58:43.337Z,35.65
2023-05-02T11:59:43.358Z,35.61
2023-05-02T12:00:43.526Z,35.63
2023-05-02T12:01:43.333Z,35.58
2023-05-02T12:02:43.518Z,35.61
2023-05-02T12:03:43.910Z,35.55
2023-05-02T12:04:43.342Z,35.54
2023-05-02T12:05:43.415Z,35.61
2023-05-02T12:06:43.359Z,35.58
2023-05-02T12:07:43.560Z,35.52
2023-05-02T12:08:43.359Z,35.48
2023-05-02T12:09:43.361Z,35.52
2023-05-02T12:10:43.537Z,35.51
2023-05-02T12:11:43.351Z,35.56
2023-05-02T12:12:43.375Z,35.48
2023-05-02T12:13:43.381Z,35.50
2023-05-02T12:14:43.350Z,35.48
2023-05-02T12:15:43.618Z,35.47
2023-05-02T12:16:43.415Z,35.47
2023-05-02T12:17:43.337Z,35.49
2023-05-02T12:18:43.368Z,35.49
2023-05-02T12:19:43.008Z,35.45
2023-05-02T12:20:43.150Z,35.53
2023-05-02T12:21:42.931Z,35.48
2023-05-02T12:22:43.505Z,35.48
2023-05-02T12:23:43.560Z,35.52
2023-05-02T12:24:44.402Z,35.43
2023-05-02T12:25:43.550Z,35.51
2023-05-02T12:26:43.421Z,35.47
2023-05-02T12:27:43.386Z,35.43
2023-05-02T12:28:43.359Z,35.48
2023-05-02T12:29:43.564Z,35.43
2023-05-02T12:30:43.866Z,35.44
2023-05-02T12:31:43.565Z,35.44
2023-05-02T12:32:43.613Z,35.49
2023-05-02T12:33:43.462Z,35.41
2023-05-02T12:34:43.316Z,35.37
2023-05-02T12:35:43.371Z,35.42
2023-05-02T12:36:42.950Z,35.41
2023-05-02T12:37:43.651Z,35.40
2023-05-02T12:38:43.318Z,35.40
2023-05-02T12:39:43.319Z,35.38
2023-05-02T12:40:43.316Z,35.35
2023-05-02T12:41:43.320Z,35.37
2023-05-02T12:42:43.338Z,35.38
2023-05-02T12:43:43.518Z,35.37
2023-05-02T12:44:43.324Z,35.34
2023-05-02T12:45:43.428Z,35.37
2023-05-02T12:46:43.359Z,35.31
2023-05-02T12:47:43.377Z,35.38
2023-05-02T12:48:44.210Z,35.31
2023-05-02T12:49:43.377Z,35.34
2023-05-02T12:50:42.980Z,35.34
2023-05-02T12:51:42.937Z,35.31
2023-05-02T12:52:42.935Z,35.30
2023-05-02T12:53:43.373Z,35.31